Terminal Aerodrome Forecast
Issued by NWS

Home | Current Version | Previous Version | Text Only | Print | Product List | Glossary On
Versions: 1 2 3 4 5 6 7 8 9 10 11 12
000
FTUS41 KPHI 291700
TAFPNE
TAF
KPNE 291723Z 2918/3018 06007KT P6SM SCT250
     FM292000 11004KT P6SM SCT250
     FM301300 17005KT P6SM FEW040=

USA.gov is the U.S. government's official web portal to all federal, state and local government web resources and services.